Time;durP1;ratioP1;P1;durP2;ratioP2;P2;SDS_P1;SDS_P2;PMS_P1;PMS_P2;Temp;Humidity;BMP_temperature;BMP_pressure;BME280_temperature;BME280_humidity;BME280_pressure;Samples;Min_cycle;Max_cycle;Signal;HPM_P1;HPM_P2
2022/06/10 00:01:41;;;;;;;4.63;3.83;;;14.90;99.90;;;;;;4988543;28;20475;-76
2022/06/10 00:04:06;;;;;;;6.27;4.37;;;15.00;99.90;;;;;;4970280;28;20026;-76
2022/06/10 00:06:34;;;;;;;6.17;4.17;;;15.00;99.90;;;;;;4978597;28;20029;-76
2022/06/10 00:09:04;;;;;;;5.07;4.25;;;15.00;99.90;;;;;;4966244;28;20266;-75
2022/06/10 00:11:29;;;;;;;5.65;4.43;;;15.00;99.90;;;;;;4967821;28;20025;-76
2022/06/10 00:14:08;;;;;;;7.80;4.60;;;15.00;99.90;;;;;;4986712;28;20392;-75
2022/06/10 00:16:45;;;;;;;7.25;5.10;;;15.00;99.90;;;;;;4963118;28;20050;-76
2022/06/10 00:19:17;;;;;;;5.68;4.40;;;15.00;99.90;;;;;;4964697;28;20372;-76
2022/06/10 00:21:43;;;;;;;6.32;4.65;;;15.00;99.90;;;;;;4985453;28;20069;-76
2022/06/10 00:24:08;;;;;;;8.10;5.10;;;15.00;99.90;;;;;;4969786;28;20459;-76
2022/06/10 00:26:34;;;;;;;5.15;4.65;;;14.90;99.90;;;;;;4986883;28;20024;-76
2022/06/10 00:29:03;;;;;;;5.95;4.90;;;14.90;99.90;;;;;;4968793;28;20049;-75
2022/06/10 00:31:34;;;;;;;8.10;4.68;;;14.90;99.90;;;;;;4975007;28;20116;-75
2022/06/10 00:34:01;;;;;;;5.53;4.63;;;14.90;99.90;;;;;;4978423;28;20023;-75
2022/06/10 00:36:30;;;;;;;5.40;4.32;;;14.90;99.90;;;;;;4967440;28;20026;-75
2022/06/10 00:38:59;;;;;;;5.95;4.25;;;14.90;99.90;;;;;;4992777;28;20018;-75
2022/06/10 00:41:26;;;;;;;6.88;4.93;;;14.90;99.90;;;;;;4976747;28;20372;-77
2022/06/10 00:43:51;;;;;;;7.78;5.25;;;14.90;99.90;;;;;;4994363;28;20021;-76
2022/06/10 00:46:26;;;;;;;5.67;4.53;;;14.80;99.90;;;;;;4994110;28;20034;-76
2022/06/10 00:49:07;;;;;;;7.25;5.05;;;14.80;99.90;;;;;;4980278;28;20022;-77
2022/06/10 00:51:45;;;;;;;5.97;4.65;;;14.80;99.90;;;;;;4966860;28;20026;-76
2022/06/10 00:54:14;;;;;;;6.47;4.60;;;14.90;99.90;;;;;;4990680;28;20029;-76
2022/06/10 00:56:47;;;;;;;7.95;4.97;;;14.90;99.90;;;;;;4983566;28;20023;-76
2022/06/10 00:59:31;;;;;;;6.47;4.80;;;14.80;99.90;;;;;;4985654;28;20032;-75
2022/06/10 01:02:11;;;;;;;7.03;4.60;;;14.80;99.90;;;;;;4983581;28;20109;-76
2022/06/10 01:04:41;;;;;;;6.40;4.60;;;14.80;99.90;;;;;;4974619;28;20113;-76
2022/06/10 01:07:08;;;;;;;8.30;4.97;;;14.80;99.90;;;;;;4978258;28;20030;-76
2022/06/10 01:09:45;;;;;;;7.13;5.10;;;14.80;99.90;;;;;;4957484;28;20046;-75
2022/06/10 01:12:10;;;;;;;;;;;14.80;99.90;;;;;;4960861;28;20380;-76
2022/06/10 01:14:56;;;;;;;7.45;4.70;;;14.80;99.90;;;;;;4987701;28;19909;-77
2022/06/10 01:17:49;;;;;;;6.72;4.70;;;14.80;99.90;;;;;;4969248;28;20022;-77
2022/06/10 01:20:38;;;;;;;6.45;5.00;;;14.80;99.90;;;;;;4969128;28;20113;-76
2022/06/10 01:23:40;;;;;;;6.65;5.25;;;14.80;99.90;;;;;;4994119;28;20084;-76
2022/06/10 01:27:47;;;;;;;9.18;5.10;;;14.80;99.90;;;;;;4964894;28;20472;-76
2022/06/10 01:29:32;;;;;;;6.05;4.43;;;14.80;99.90;;;;;;4994319;28;20022;-75
2022/06/10 01:32:17;;;;;;;6.68;5.22;;;14.80;99.90;;;;;;4957723;28;20463;-75
2022/06/10 01:35:14;;;;;;;7.60;5.22;;;14.80;99.90;;;;;;4967764;28;20037;-76
2022/06/10 01:37:58;;;;;;;7.88;5.03;;;14.80;99.90;;;;;;4978323;28;20030;-76
2022/06/10 01:40:40;;;;;;;5.75;4.72;;;14.80;99.90;;;;;;4984172;28;20097;-76
2022/06/10 01:43:55;;;;;;;7.57;5.00;;;14.80;99.90;;;;;;4987117;28;20053;-76
2022/06/10 01:46:33;;;;;;;7.63;5.03;;;14.80;99.90;;;;;;4974864;28;20031;-76
2022/06/10 01:49:11;;;;;;;8.02;4.93;;;14.80;99.90;;;;;;4985202;28;20018;-76
2022/06/10 01:52:13;;;;;;;7.07;4.97;;;14.80;99.90;;;;;;4975100;28;20033;-76
2022/06/10 01:55:10;;;;;;;8.32;4.93;;;14.80;99.90;;;;;;4972694;28;20041;-75
2022/06/10 01:58:04;;;;;;;7.03;5.20;;;14.80;99.90;;;;;;4982510;28;20038;-76
2022/06/10 02:00:33;;;;;;;7.15;5.00;;;14.70;99.90;;;;;;4961390;28;20107;-75
2022/06/10 02:03:15;;;;;;;5.53;4.60;;;14.70;99.90;;;;;;4970271;28;20332;-75
2022/06/10 02:05:48;;;;;;;9.38;5.35;;;14.80;99.90;;;;;;4994887;28;20025;-79
2022/06/10 02:08:27;;;;;;;6.00;4.70;;;14.70;99.90;;;;;;4962029;28;20135;-76
2022/06/10 02:11:12;;;;;;;8.10;5.10;;;14.80;99.90;;;;;;4989740;28;20014;-75
2022/06/10 02:13:48;;;;;;;6.00;4.97;;;14.70;99.90;;;;;;4980175;28;20025;-76
2022/06/10 02:16:30;;;;;;;7.07;4.82;;;14.70;99.90;;;;;;4987902;28;20103;-76
2022/06/10 02:19:23;;;;;;;6.57;4.78;;;14.70;99.90;;;;;;4988402;28;20033;-76
2022/06/10 02:21:56;;;;;;;6.13;5.20;;;14.70;99.90;;;;;;4967956;28;20022;-76
2022/06/10 02:24:36;;;;;;;7.00;5.43;;;14.70;99.90;;;;;;4981603;28;20434;-75
2022/06/10 02:27:09;;;;;;;7.78;5.22;;;14.70;99.90;;;;;;4972808;28;20527;-75
2022/06/10 02:29:58;;;;;;;7.03;5.35;;;14.60;99.90;;;;;;4964175;28;20038;-76
2022/06/10 02:32:26;;;;;;;7.15;5.38;;;14.70;99.90;;;;;;4964341;28;20029;-75
2022/06/10 02:34:52;;;;;;;6.93;5.20;;;14.60;99.90;;;;;;4971779;28;20105;-76
2022/06/10 02:37:42;;;;;;;6.65;4.93;;;14.60;99.90;;;;;;4971977;28;20022;-76
2022/06/10 02:40:27;;;;;;;9.10;5.72;;;14.70;99.90;;;;;;4976374;28;20050;-76
2022/06/10 02:43:31;;;;;;;7.28;5.50;;;14.70;99.90;;;;;;4967643;28;20046;-76
2022/06/10 02:46:23;;;;;;;8.27;5.05;;;14.70;99.90;;;;;;4990983;28;20033;-76
2022/06/10 02:49:14;;;;;;;7.68;5.35;;;14.70;99.90;;;;;;4989037;28;20054;-77
2022/06/10 02:51:43;;;;;;;6.22;5.30;;;14.70;99.90;;;;;;4972000;28;20506;-76
2022/06/10 02:54:18;;;;;;;7.75;5.38;;;14.70;99.90;;;;;;4988459;28;20057;-76
2022/06/10 02:56:44;;;;;;;8.63;5.18;;;14.70;99.90;;;;;;4971050;28;20041;-76
2022/06/10 03:01:55;;;;;;;6.10;4.65;;;14.60;99.90;;;;;;4983257;28;20158;-76
2022/06/10 03:04:48;;;;;;;5.00;4.10;;;14.70;99.90;;;;;;4983838;28;20720;-76
2022/06/10 03:07:27;;;;;;;5.30;4.32;;;14.70;99.90;;;;;;4982187;28;20026;-76
2022/06/10 03:10:35;;;;;;;6.50;4.78;;;14.70;99.90;;;;;;4971193;28;20030;-76
2022/06/10 03:13:23;;;;;;;5.97;4.60;;;14.70;99.90;;;;;;4983252;28;20088;-76
2022/06/10 03:16:30;;;;;;;5.40;4.30;;;14.60;99.90;;;;;;4978651;28;20819;-76
2022/06/10 03:19:20;;;;;;;7.32;4.88;;;14.60;99.90;;;;;;4962787;28;20116;-76
2022/06/10 03:22:12;;;;;;;5.38;4.47;;;14.60;99.90;;;;;;4988485;28;20051;-76
2022/06/10 03:24:38;;;;;;;5.85;4.38;;;14.60;99.90;;;;;;4964673;28;20033;-75
2022/06/10 03:27:28;;;;;;;6.23;4.37;;;14.60;99.90;;;;;;4968525;28;20018;-76
2022/06/10 03:30:11;;;;;;;5.32;4.50;;;14.60;99.90;;;;;;4960846;28;20478;-77
2022/06/10 03:32:43;;;;;;;6.70;5.07;;;14.60;99.90;;;;;;4969740;28;20022;-75
2022/06/10 03:35:21;;;;;;;6.05;4.75;;;14.60;99.90;;;;;;4967812;28;20022;-76
2022/06/10 03:38:00;;;;;;;6.80;4.47;;;14.60;99.90;;;;;;4988922;28;20024;-75
2022/06/10 03:40:29;;;;;;;5.60;4.65;;;14.60;99.90;;;;;;4971468;28;20018;-76
2022/06/10 03:42:59;;;;;;;6.80;4.30;;;14.60;99.90;;;;;;4965525;28;20072;-76
2022/06/10 03:45:57;;;;;;;7.82;4.60;;;14.60;99.90;;;;;;4978831;28;20037;-76
2022/06/10 03:48:27;;;;;;;7.97;4.65;;;14.60;99.90;;;;;;4959398;28;20034;-76
2022/06/10 03:50:55;;;;;;;6.22;4.80;;;14.60;99.90;;;;;;4982139;28;20037;-76
2022/06/10 03:53:23;;;;;;;5.95;4.65;;;14.60;99.90;;;;;;4977506;28;20025;-77
2022/06/10 03:55:49;;;;;;;7.47;5.15;;;14.60;99.90;;;;;;4992175;28;20128;-76
2022/06/10 03:58:16;;;;;;;8.77;4.70;;;14.70;99.90;;;;;;4969412;28;20109;-76
2022/06/10 04:00:53;;;;;;;7.15;4.60;;;14.70;99.90;;;;;;4981180;28;20385;-77
2022/06/10 04:03:21;;;;;;;6.25;4.72;;;14.80;99.90;;;;;;4965674;28;20063;-76
2022/06/10 04:05:52;;;;;;;6.85;5.05;;;14.80;99.90;;;;;;4989628;28;20027;-76
2022/06/10 04:08:20;;;;;;;6.47;4.38;;;14.80;99.90;;;;;;4986449;28;20056;-76
2022/06/10 04:10:46;;;;;;;7.95;4.38;;;14.80;99.90;;;;;;4974562;28;20031;-75
2022/06/10 04:13:17;;;;;;;;;;;14.80;99.90;;;;;;4971522;28;20045;-76
2022/06/10 04:15:44;;;;;;;7.18;5.50;;;14.80;99.90;;;;;;4987645;28;20307;-76
2022/06/10 04:18:16;;;;;;;6.38;4.80;;;14.80;99.90;;;;;;4989274;28;20036;-77
2022/06/10 04:20:47;;;;;;;7.20;5.45;;;14.90;99.90;;;;;;4966768;28;20023;-76
2022/06/10 04:23:18;;;;;;;11.98;6.20;;;14.90;99.90;;;;;;4970803;28;20068;-76
2022/06/10 04:25:44;;;;;;;9.20;5.72;;;14.90;99.90;;;;;;4963251;28;20722;-70
2022/06/10 04:28:10;;;;;;;;;;;14.90;99.90;;;;;;4977902;28;20029;-70
2022/06/10 04:30:49;;;;;;;8.32;5.95;;;15.10;99.90;;;;;;4964645;28;20076;-71
2022/06/10 04:33:15;;;;;;;7.85;5.53;;;15.30;99.90;;;;;;4970350;28;20058;-74
2022/06/10 04:35:43;;;;;;;7.28;5.60;;;15.40;99.90;;;;;;4964122;28;20094;-75
2022/06/10 04:38:19;;;;;;;8.10;6.13;;;15.40;99.90;;;;;;4972270;28;20026;-75
2022/06/10 04:40:48;;;;;;;7.75;5.40;;;15.40;99.90;;;;;;4969231;28;21524;-75
2022/06/10 04:43:17;;;;;;;8.35;5.50;;;15.30;99.90;;;;;;4963834;28;20030;-75
2022/06/10 04:45:54;;;;;;;7.05;5.65;;;15.20;99.90;;;;;;4985512;28;20480;-75
2022/06/10 04:48:21;;;;;;;6.60;4.95;;;15.20;99.90;;;;;;4983633;28;20021;-75
2022/06/10 04:50:48;;;;;;;7.68;5.07;;;15.20;99.90;;;;;;4986144;28;20034;-75
2022/06/10 04:53:14;;;;;;;7.05;5.13;;;15.10;99.90;;;;;;4968945;28;20061;-75
2022/06/10 04:55:40;;;;;;;6.72;5.05;;;15.10;99.90;;;;;;4966569;28;20025;-75
2022/06/10 04:58:06;;;;;;;8.93;5.25;;;15.10;99.90;;;;;;4970140;28;20018;-75
2022/06/10 05:00:39;;;;;;;6.80;4.90;;;15.00;99.90;;;;;;4980805;28;20103;-77
2022/06/10 05:03:19;;;;;;;6.38;4.85;;;15.00;99.90;;;;;;4978521;28;20026;-75
2022/06/10 05:05:45;;;;;;;6.38;4.90;;;15.00;99.90;;;;;;4986625;28;20041;-76
2022/06/10 05:08:15;;;;;;;6.70;5.30;;;15.00;99.90;;;;;;4967316;28;20026;-75
2022/06/10 05:10:41;;;;;;;7.25;4.85;;;15.10;99.90;;;;;;4984066;28;20257;-75
2022/06/10 05:13:07;;;;;;;6.13;4.95;;;15.10;99.90;;;;;;4982620;28;20068;-75
2022/06/10 05:15:34;;;;;;;7.55;5.00;;;15.10;99.90;;;;;;4975428;28;20038;-75
2022/06/10 05:18:04;;;;;;;5.78;4.63;;;15.10;99.90;;;;;;4976295;28;20384;-76
2022/06/10 05:20:34;;;;;;;5.50;4.35;;;15.10;99.90;;;;;;4974735;28;20087;-75
2022/06/10 05:23:04;;;;;;;7.05;4.20;;;15.10;99.90;;;;;;4966518;28;20015;-74
2022/06/10 05:25:32;;;;;;;6.38;4.05;;;15.10;99.90;;;;;;4978778;28;20030;-75
2022/06/10 05:27:59;;;;;;;4.72;3.83;;;15.10;99.90;;;;;;4968433;28;20113;-75
2022/06/10 05:30:30;;;;;;;8.63;4.03;;;15.10;99.90;;;;;;4982604;28;20026;-71
2022/06/10 05:32:57;;;;;;;6.07;4.85;;;15.10;99.90;;;;;;4982539;28;20018;-71
2022/06/10 05:35:25;;;;;;;6.28;4.00;;;15.30;99.90;;;;;;4983526;28;20029;-71
2022/06/10 05:37:52;;;;;;;5.22;4.35;;;15.30;99.90;;;;;;4982342;28;20110;-70
2022/06/10 05:40:22;;;;;;;6.90;4.82;;;15.40;99.90;;;;;;4988130;28;20113;-70
2022/06/10 05:42:49;;;;;;;6.80;4.32;;;15.60;99.90;;;;;;4985821;28;20881;-71
2022/06/10 05:45:17;;;;;;;6.32;5.13;;;15.60;99.90;;;;;;4986217;28;21126;-70
2022/06/10 05:47:45;;;;;;;6.60;4.55;;;15.60;99.90;;;;;;4987268;28;20230;-71
2022/06/10 05:50:38;;;;;;;6.22;4.32;;;15.60;99.90;;;;;;4988566;28;20034;-70
2022/06/10 05:53:08;;;;;;;6.82;4.20;;;15.60;99.90;;;;;;4973771;28;20048;-70
2022/06/10 05:55:35;;;;;;;5.80;3.88;;;15.60;99.90;;;;;;4979439;28;20085;-71
2022/06/10 05:58:00;;;;;;;;;;;15.60;99.90;;;;;;4983789;28;20038;-75
2022/06/10 06:00:36;;;;;;;5.03;3.35;;;15.60;99.90;;;;;;4959152;28;19937;-77
2022/06/10 06:03:23;;;;;;;5.90;3.17;;;15.60;99.90;;;;;;4979277;28;20100;-75
2022/06/10 06:05:52;;;;;;;3.55;3.13;;;15.50;99.90;;;;;;4967787;28;20069;-75
2022/06/10 06:08:24;;;;;;;4.22;3.08;;;15.50;99.90;;;;;;4991027;28;20025;-75
2022/06/10 06:10:50;;;;;;;4.03;3.35;;;15.40;99.90;;;;;;4975947;28;20026;-75
2022/06/10 06:13:17;;;;;;;;;;;15.30;99.90;;;;;;4972056;28;20039;-75
2022/06/10 06:15:48;;;;;;;4.65;3.75;;;15.20;99.90;;;;;;4968207;28;19941;-75
2022/06/10 06:18:24;;;;;;;7.07;3.70;;;15.20;99.90;;;;;;4995136;28;20034;-77
2022/06/10 06:20:56;;;;;;;3.80;3.30;;;15.20;99.90;;;;;;4991312;28;20018;-76
2022/06/10 06:23:23;;;;;;;4.97;3.35;;;15.10;99.90;;;;;;4988697;28;20182;-75
2022/06/10 06:25:49;;;;;;;4.07;3.45;;;15.10;99.90;;;;;;4988139;28;20036;-75
2022/06/10 06:28:14;;;;;;;4.87;3.70;;;15.10;99.90;;;;;;4990040;28;20034;-75
2022/06/10 06:30:41;;;;;;;5.73;4.30;;;15.10;99.90;;;;;;4989231;28;20272;-76
2022/06/10 06:33:16;;;;;;;5.78;4.05;;;15.10;99.90;;;;;;4984726;28;20026;-75
2022/06/10 06:35:51;;;;;;;5.10;3.90;;;15.10;99.90;;;;;;4983895;28;20563;-75
2022/06/10 06:38:17;;;;;;;5.75;4.18;;;15.10;99.90;;;;;;4969981;28;20026;-74
2022/06/10 06:40:43;;;;;;;5.32;4.20;;;15.10;99.90;;;;;;4983593;28;20019;-75
2022/06/10 06:43:10;;;;;;;6.70;4.10;;;15.10;99.90;;;;;;4985558;28;20033;-75
2022/06/10 06:45:43;;;;;;;3.95;3.20;;;15.00;99.90;;;;;;4970066;28;20026;-75
2022/06/10 06:48:10;;;;;;;5.07;3.50;;;15.00;99.90;;;;;;4974970;28;20502;-78
2022/06/10 06:50:45;;;;;;;5.18;3.67;;;15.00;99.90;;;;;;4968668;28;20836;-75
2022/06/10 06:53:18;;;;;;;3.70;3.35;;;15.00;99.90;;;;;;4986181;28;20105;-76
2022/06/10 06:55:44;;;;;;;3.00;2.70;;;15.10;99.90;;;;;;4985922;28;20026;-75
2022/06/10 06:58:13;;;;;;;3.33;2.70;;;15.10;99.90;;;;;;4989153;28;20032;-78
2022/06/10 07:00:39;;;;;;;4.07;3.25;;;15.10;99.90;;;;;;4964088;28;20034;-78
2022/06/10 07:03:05;;;;;;;3.97;2.97;;;15.10;99.90;;;;;;4972189;28;20018;-78
2022/06/10 07:05:32;;;;;;;4.25;3.03;;;15.10;99.90;;;;;;4967815;28;20022;-79
2022/06/10 07:07:59;;;;;;;3.80;3.40;;;15.00;99.90;;;;;;4970369;28;20044;-78
2022/06/10 07:10:25;;;;;;;4.60;3.38;;;15.10;99.90;;;;;;4987918;28;20109;-78
2022/06/10 07:12:51;;;;;;;4.10;3.08;;;15.10;99.90;;;;;;4967000;28;20026;-79
2022/06/10 07:15:18;;;;;;;4.15;3.30;;;15.00;99.90;;;;;;4981024;28;20053;-77
2022/06/10 07:17:44;;;;;;;3.05;2.60;;;15.10;99.90;;;;;;4984106;28;20027;-78
2022/06/10 07:20:19;;;;;;;2.90;2.58;;;15.10;99.90;;;;;;4958920;28;20105;-78
2022/06/10 07:22:45;;;;;;;2.83;2.53;;;15.10;99.90;;;;;;4970134;28;20030;-78
2022/06/10 07:25:12;;;;;;;3.33;2.70;;;15.10;99.90;;;;;;4976730;28;20141;-78
2022/06/10 07:27:39;;;;;;;2.70;2.50;;;15.10;99.90;;;;;;4959286;28;20037;-75
2022/06/10 07:30:05;;;;;;;;;;;15.10;99.90;;;;;;4977783;28;20026;-76
2022/06/10 07:32:32;;;;;;;2.60;2.33;;;15.20;99.90;;;;;;4968361;28;19913;-76
2022/06/10 07:35:02;;;;;;;;;;;15.20;99.90;;;;;;4987259;28;20476;-76
2022/06/10 07:37:29;;;;;;;2.25;2.05;;;15.20;99.90;;;;;;4965406;28;20028;-76
2022/06/10 07:39:58;;;;;;;3.85;2.45;;;15.20;99.90;;;;;;4971293;28;20037;-76
2022/06/10 07:42:25;;;;;;;3.03;2.17;;;15.20;99.90;;;;;;4962520;28;20029;-76
2022/06/10 07:44:51;;;;;;;2.92;2.30;;;15.10;99.90;;;;;;4973435;28;20029;-76
2022/06/10 07:47:21;;;;;;;3.13;2.60;;;15.20;99.90;;;;;;4975232;28;20116;-77
2022/06/10 07:49:49;;;;;;;2.92;2.63;;;15.20;99.90;;;;;;4968263;28;20030;-75
2022/06/10 07:52:15;;;;;;;3.45;2.75;;;15.20;99.90;;;;;;4986006;28;20061;-75
2022/06/10 07:54:42;;;;;;;4.13;3.30;;;15.20;99.90;;;;;;4970996;28;20611;-76
2022/06/10 07:57:10;;;;;;;3.80;3.40;;;15.20;99.90;;;;;;4986204;28;20101;-77
2022/06/10 07:59:42;;;;;;;4.32;3.70;;;15.20;99.90;;;;;;4983998;28;20025;-75
2022/06/10 08:02:09;;;;;;;4.50;3.20;;;15.20;99.90;;;;;;4966925;28;20018;-75
2022/06/10 08:04:38;;;;;;;6.03;3.58;;;15.30;99.90;;;;;;4963526;28;20041;-76
2022/06/10 08:07:18;;;;;;;3.72;3.28;;;15.30;99.90;;;;;;4989667;28;20105;-76
2022/06/10 08:09:50;;;;;;;4.35;3.35;;;15.40;99.90;;;;;;4984539;28;20030;-76
2022/06/10 08:12:18;;;;;;;5.63;3.30;;;15.60;99.90;;;;;;4990681;28;20033;-76
2022/06/10 08:14:49;;;;;;;4.07;3.50;;;15.60;99.90;;;;;;4983714;28;20599;-77
2022/06/10 08:17:16;;;;;;;5.35;3.88;;;15.80;99.90;;;;;;4973491;28;20018;-78
2022/06/10 08:19:47;;;;;;;5.05;4.18;;;15.80;99.90;;;;;;4984612;28;20030;-79
2022/06/10 08:22:32;;;;;;;5.68;3.78;;;15.70;99.90;;;;;;4980429;28;20010;-79
2022/06/10 08:24:59;;;;;;;4.47;3.80;;;15.70;99.90;;;;;;4978687;28;20037;-78
2022/06/10 08:27:28;;;;;;;4.57;4.00;;;15.70;99.90;;;;;;4986350;28;20050;-78
2022/06/10 08:29:56;;;;;;;5.45;4.32;;;15.60;99.90;;;;;;4966380;28;20021;-79
2022/06/10 08:32:24;;;;;;;5.72;4.18;;;15.60;99.90;;;;;;4985022;28;20026;-79
2022/06/10 08:34:50;;;;;;;3.75;3.20;;;15.60;99.90;;;;;;4971312;28;20109;-79
2022/06/10 08:37:21;;;;;;;5.00;3.83;;;15.50;99.90;;;;;;4958654;28;20026;-80
2022/06/10 08:39:48;;;;;;;5.05;3.85;;;15.60;99.90;;;;;;4981617;28;20038;-79
2022/06/10 08:42:23;;;;;;;7.97;4.30;;;15.60;99.90;;;;;;4974580;28;20018;-79
2022/06/10 08:44:52;;;;;;;3.70;3.20;;;15.60;99.90;;;;;;4985790;28;20744;-79
2022/06/10 08:47:51;;;;;;;3.95;3.55;;;15.60;99.90;;;;;;4981409;28;20062;-79
2022/06/10 08:50:47;;;;;;;4.28;3.78;;;15.60;99.90;;;;;;4962544;28;20031;-79
2022/06/10 08:53:27;;;;;;;3.72;3.13;;;15.70;99.90;;;;;;4975572;28;20101;-79
2022/06/10 08:56:13;;;;;;;3.53;3.22;;;15.60;99.90;;;;;;4982298;28;20022;-79
2022/06/10 08:59:02;;;;;;;4.28;3.60;;;15.60;99.90;;;;;;4980753;28;20035;-79
2022/06/10 09:01:53;;;;;;;3.53;3.20;;;15.60;99.90;;;;;;4977040;28;20395;-78
2022/06/10 09:04:46;;;;;;;3.03;2.67;;;15.60;99.90;;;;;;4996826;28;20072;-79
2022/06/10 09:07:25;;;;;;;4.32;3.28;;;15.60;99.90;;;;;;4987395;28;20022;-79
2022/06/10 09:09:57;;;;;;;4.40;3.20;;;15.60;99.90;;;;;;4969178;28;20049;-79
2022/06/10 09:12:39;;;;;;;3.25;2.92;;;15.60;99.90;;;;;;4979545;28;20265;-78
2022/06/10 09:15:05;;;;;;;3.88;2.90;;;15.60;99.90;;;;;;4990458;28;20026;-78
2022/06/10 09:17:57;;;;;;;4.63;3.63;;;15.70;99.90;;;;;;4988222;28;20023;-78
2022/06/10 09:20:41;;;;;;;3.70;3.35;;;15.70;99.90;;;;;;4969677;28;20553;-79
2022/06/10 09:23:32;;;;;;;3.65;3.17;;;15.70;99.90;;;;;;4980479;28;20021;-76
2022/06/10 09:26:06;;;;;;;4.82;3.90;;;15.60;99.90;;;;;;4969906;28;20030;-76
2022/06/10 09:28:33;;;;;;;4.32;3.90;;;15.60;99.90;;;;;;4976833;28;20468;-79
2022/06/10 09:31:17;;;;;;;4.63;4.03;;;15.60;99.90;;;;;;4966698;28;20719;-78
2022/06/10 09:33:53;;;;;;;5.80;4.35;;;15.70;99.90;;;;;;4982656;28;20096;-78
2022/06/10 09:36:57;;;;;;;6.50;4.67;;;15.70;99.90;;;;;;4986516;28;20491;-79
2022/06/10 09:43:07;;;;;;;5.10;4.35;;;15.70;99.90;;;;;;4984677;28;20127;-73
2022/06/10 09:45:50;;;;;;;5.43;4.57;;;15.80;99.90;;;;;;4950449;28;20023;-78
2022/06/10 09:48:29;;;;;;;7.07;4.70;;;16.00;99.90;;;;;;4973924;28;20817;-78
2022/06/10 09:51:21;;;;;;;5.60;4.63;;;16.00;99.90;;;;;;4966760;28;20668;-78
2022/06/10 09:54:16;;;;;;;6.07;4.22;;;16.00;99.90;;;;;;4977936;28;20719;-78
2022/06/10 09:56:57;;;;;;;5.50;4.30;;;15.90;99.90;;;;;;4969222;28;20030;-78
2022/06/10 09:59:44;;;;;;;6.53;5.03;;;15.90;99.90;;;;;;4978829;28;20074;-78
2022/06/10 10:02:21;;;;;;;9.27;5.60;;;15.90;99.90;;;;;;4987596;28;20014;-74
2022/06/10 10:05:12;;;;;;;7.88;5.38;;;16.10;99.90;;;;;;4964132;28;20030;-73
2022/06/10 10:07:52;;;;;;;6.93;5.22;;;16.20;99.90;;;;;;4982962;28;20026;-74
2022/06/10 10:10:44;;;;;;;7.45;5.35;;;16.40;99.90;;;;;;4983823;28;20105;-74
2022/06/10 10:13:25;;;;;;;6.43;5.13;;;16.60;99.90;;;;;;4965256;28;20072;-73
2022/06/10 10:16:01;;;;;;;5.63;4.85;;;16.50;99.90;;;;;;4986185;28;20385;-73
2022/06/10 10:18:33;;;;;;;6.93;5.70;;;16.60;99.90;;;;;;4965922;28;20061;-73
2022/06/10 10:21:24;;;;;;;6.82;5.75;;;16.60;99.90;;;;;;4961158;28;20072;-73
2022/06/10 10:23:52;;;;;;;8.73;5.68;;;16.60;99.90;;;;;;4989417;28;20381;-77
2022/06/10 10:26:30;;;;;;;6.40;5.72;;;16.60;99.90;;;;;;4962900;28;20038;-76
2022/06/10 10:29:07;;;;;;;8.23;5.90;;;16.50;99.90;;;;;;4992103;28;20014;-76
2022/06/10 10:32:19;;;;;;;6.60;5.85;;;16.50;99.90;;;;;;4965065;28;20087;-76
2022/06/10 10:34:50;;;;;;;7.65;6.47;;;16.40;99.90;;;;;;4969666;28;20050;-78
2022/06/10 10:37:29;;;;;;;8.38;6.22;;;16.30;99.90;;;;;;4989573;28;20095;-78
2022/06/10 10:40:01;;;;;;;8.57;6.90;;;16.20;99.90;;;;;;4970772;28;20077;-77
2022/06/10 10:42:32;;;;;;;9.02;6.75;;;16.20;99.90;;;;;;4973480;28;20018;-77
2022/06/10 10:45:21;;;;;;;9.65;6.60;;;16.20;99.90;;;;;;4989986;28;20080;-77
2022/06/10 10:48:09;;;;;;;10.43;7.35;;;16.10;99.90;;;;;;4961683;28;20026;-78
2022/06/10 10:50:40;;;;;;;10.93;7.30;;;16.10;99.90;;;;;;4990129;28;20391;-76
2022/06/10 10:53:34;;;;;;;11.68;7.45;;;16.10;99.90;;;;;;4973033;28;20033;-76
2022/06/10 10:56:05;;;;;;;11.15;7.85;;;16.10;99.90;;;;;;4971547;28;20581;-77
2022/06/10 10:58:38;;;;;;;9.40;7.28;;;16.10;99.90;;;;;;4980557;28;20026;-77
2022/06/10 11:01:43;;;;;;;8.02;7.20;;;16.20;99.90;;;;;;4961620;28;20552;-77
2022/06/10 11:04:02;;;;;;;8.50;6.68;;;16.20;99.90;;;;;;4982276;28;20109;-77
2022/06/10 11:06:37;;;;;;;8.95;7.38;;;16.20;99.90;;;;;;4975999;28;20380;-77
2022/06/10 11:09:25;;;;;;;10.07;7.28;;;16.20;99.90;;;;;;4989457;28;20087;-77
2022/06/10 11:11:53;;;;;;;;;;;16.20;99.90;;;;;;4961117;28;20024;-77
2022/06/10 11:14:33;;;;;;;10.60;8.05;;;16.20;99.90;;;;;;4962962;28;20009;-78
2022/06/10 11:17:17;;;;;;;13.02;8.52;;;16.30;99.90;;;;;;4967518;28;20486;-77
2022/06/10 11:19:51;;;;;;;10.73;7.60;;;16.30;99.90;;;;;;4969851;28;20065;-77
2022/06/10 11:22:30;;;;;;;10.30;7.82;;;16.40;99.90;;;;;;4967876;28;20104;-76
2022/06/10 11:25:02;;;;;;;9.85;7.40;;;16.40;99.90;;;;;;4958047;28;20603;-72
2022/06/10 11:27:35;;;;;;;10.00;7.25;;;16.40;99.90;;;;;;4978311;28;20033;-72
2022/06/10 11:30:14;;;;;;;10.43;6.88;;;16.50;99.90;;;;;;4976343;28;20026;-72
2022/06/10 11:32:44;;;;;;;9.02;6.90;;;16.70;99.90;;;;;;4984026;28;20041;-72
2022/06/10 11:35:33;;;;;;;9.85;7.25;;;16.80;99.90;;;;;;4955361;28;20027;-73
2022/06/10 11:38:01;;;;;;;10.05;6.82;;;16.90;99.90;;;;;;4975358;28;20025;-72
2022/06/10 11:40:38;;;;;;;8.65;7.20;;;17.00;99.90;;;;;;4966792;28;20435;-72
2022/06/10 11:43:13;;;;;;;9.13;6.90;;;17.10;99.90;;;;;;4973259;28;20570;-72
2022/06/10 11:45:46;;;;;;;10.60;7.55;;;17.20;99.90;;;;;;4981444;28;20097;-72
2022/06/10 11:48:24;;;;;;;8.57;6.82;;;17.20;99.90;;;;;;4981282;28;20484;-72
2022/06/10 11:51:18;;;;;;;9.30;7.07;;;17.20;99.90;;;;;;4989265;28;20026;-72
2022/06/10 11:54:17;;;;;;;9.95;6.40;;;17.30;99.90;;;;;;4973322;28;20033;-72
2022/06/10 12:00:16;;;;;;;7.55;6.28;;;17.40;99.90;;;;;;4981515;28;20216;-72
2022/06/10 12:03:18;;;;;;;8.13;6.82;;;17.50;99.90;;;;;;4966707;28;20095;-72
2022/06/10 12:06:03;;;;;;;11.27;7.50;;;17.50;99.90;;;;;;4983459;28;20130;-78
2022/06/10 12:08:28;;;;;;;10.15;7.45;;;17.50;99.90;;;;;;4964692;28;20026;-77
2022/06/10 12:11:20;;;;;;;9.83;7.10;;;17.40;99.90;;;;;;4974696;28;20561;-77
2022/06/10 12:14:02;;;;;;;9.35;6.88;;;17.20;99.90;;;;;;4982987;28;20094;-77
2022/06/10 12:16:31;;;;;;;10.73;7.15;;;17.20;99.90;;;;;;4987989;28;20025;-77
2022/06/10 12:19:14;;;;;;;9.45;7.10;;;17.10;99.90;;;;;;4979085;28;20026;-77
2022/06/10 12:21:49;;;;;;;8.73;7.13;;;17.10;99.90;;;;;;4982529;28;20482;-77
2022/06/10 12:24:23;;;;;;;10.30;7.63;;;17.00;99.90;;;;;;4988308;28;20030;-76
2022/06/10 12:27:22;;;;;;;10.75;7.93;;;17.10;99.90;;;;;;4970228;28;20034;-77
2022/06/10 12:30:04;;;;;;;9.15;7.35;;;17.00;99.90;;;;;;4965092;28;20187;-77
2022/06/10 12:32:54;;;;;;;9.60;7.82;;;17.00;99.90;;;;;;4967516;28;20022;-77
2022/06/10 12:35:31;;;;;;;8.45;7.47;;;17.00;99.90;;;;;;4970083;28;20029;-77
2022/06/10 12:38:16;;;;;;;8.63;7.45;;;17.00;99.90;;;;;;4983339;28;20025;-77
2022/06/10 12:41:01;;;;;;;9.13;7.57;;;17.00;99.90;;;;;;4990020;28;20523;-77
2022/06/10 12:43:51;;;;;;;12.68;7.53;;;17.00;99.90;;;;;;4983201;28;20443;-77
2022/06/10 12:46:36;;;;;;;10.15;7.72;;;16.90;99.90;;;;;;4974638;28;20080;-77
2022/06/10 12:49:16;;;;;;;9.73;7.85;;;16.90;99.90;;;;;;4983393;28;20022;-76
2022/06/10 12:52:07;;;;;;;9.55;7.05;;;16.90;99.90;;;;;;4978577;28;20691;-77
2022/06/10 12:54:41;;;;;;;9.63;7.70;;;17.00;99.90;;;;;;4971188;28;20145;-77
2022/06/10 12:57:22;;;;;;;9.57;7.32;;;17.00;99.90;;;;;;4987974;28;20014;-77
2022/06/10 12:59:48;;;;;;;10.65;8.07;;;16.80;99.90;;;;;;4986717;28;20026;-73
2022/06/10 13:02:53;;;;;;;11.88;7.68;;;16.90;99.90;;;;;;4985072;28;20022;-72
2022/06/10 13:05:31;;;;;;;11.85;7.18;;;17.10;99.90;;;;;;4920865;29;20078;-73
2022/06/10 13:07:59;;;;;;;11.27;8.02;;;17.30;99.90;;;;;;4916381;29;20031;-73
2022/06/10 13:10:33;;;;;;;8.90;6.68;;;17.40;99.90;;;;;;4955058;28;20042;-73
2022/06/10 13:13:09;;;;;;;9.25;6.63;;;17.50;99.90;;;;;;4987753;28;20030;-73
2022/06/10 13:15:36;;;;;;;8.13;6.85;;;17.60;99.90;;;;;;4982699;28;20029;-73
2022/06/10 13:18:17;;;;;;;10.07;6.13;;;17.70;99.90;;;;;;4968919;28;20026;-72
2022/06/10 13:20:46;;;;;;;7.07;5.93;;;17.80;99.90;;;;;;4986515;28;20080;-73
2022/06/10 13:23:17;;;;;;;10.13;7.10;;;17.80;99.90;;;;;;4993402;28;20018;-74
2022/06/10 13:25:47;;;;;;;10.98;6.75;;;17.80;99.90;;;;;;4964744;28;20118;-74
2022/06/10 13:28:16;;;;;;;9.55;6.40;;;17.80;99.90;;;;;;4986687;28;20030;-73
2022/06/10 13:30:43;;;;;;;7.00;6.07;;;17.90;99.90;;;;;;4968836;28;20027;-73
2022/06/10 13:33:16;;;;;;;7.22;5.90;;;18.00;99.90;;;;;;4987013;28;20033;-73
2022/06/10 13:35:45;;;;;;;6.63;5.43;;;18.10;99.90;;;;;;4969978;28;20034;-73
2022/06/10 13:38:16;;;;;;;10.20;5.78;;;18.30;99.90;;;;;;4987035;28;20061;-73
2022/06/10 13:43:47;;;;;;;8.68;5.57;;;18.70;99.90;;;;;;4985563;28;20495;-73
2022/06/10 13:46:18;;;;;;;5.93;4.93;;;18.90;99.90;;;;;;4966237;28;20027;-73